createdAt,value
2022-11-25T00:00:00.159Z,5.50
2022-11-25T00:02:26.678Z,6.30
2022-11-25T00:04:53.103Z,5.30
2022-11-25T00:07:19.614Z,6.35
2022-11-25T00:09:46.084Z,6.22
2022-11-25T00:12:12.441Z,6.20
2022-11-25T00:14:38.962Z,6.50
2022-11-25T00:17:05.430Z,6.05
2022-11-25T00:19:31.812Z,6.03
2022-11-25T00:21:58.171Z,5.18
2022-11-25T00:24:24.572Z,6.55
2022-11-25T00:26:50.954Z,6.35
2022-11-25T00:29:17.773Z,5.22
2022-11-25T00:31:44.254Z,6.35
2022-11-25T00:34:14.364Z,4.78
2022-11-25T00:36:40.814Z,4.78
2022-11-25T00:39:11.579Z,5.65
2022-11-25T00:41:56.855Z,5.00
2022-11-25T00:44:36.470Z,5.68
2022-11-25T00:47:12.996Z,4.82
2022-11-25T00:49:44.458Z,5.90
2022-11-25T00:52:15.149Z,4.82
2022-11-25T00:54:41.923Z,6.30
2022-11-25T00:57:08.281Z,4.72
2022-11-25T00:59:34.707Z,4.53
2022-11-25T01:02:01.262Z,4.32
2022-11-25T01:04:27.854Z,5.72
2022-11-25T01:06:56.654Z,4.90
2022-11-25T01:09:23.613Z,4.28
2022-11-25T01:11:51.344Z,4.55
2022-11-25T01:14:19.595Z,4.88
2022-11-25T01:16:47.104Z,4.55
2022-11-25T01:19:13.744Z,4.75
2022-11-25T01:21:40.116Z,4.72
2022-11-25T01:24:07.218Z,6.63
2022-11-25T01:26:34.964Z,5.03
2022-11-25T01:29:05.209Z,4.63
2022-11-25T01:31:35.617Z,4.65
2022-11-25T01:34:05.999Z,5.35
2022-11-25T01:36:32.529Z,6.32
2022-11-25T01:39:00.308Z,7.15
2022-11-25T01:41:29.840Z,6.43
2022-11-25T01:44:22.602Z,6.78
2022-11-25T01:46:57.916Z,7.13
2022-11-25T01:49:36.467Z,6.05
2022-11-25T01:52:09.911Z,6.70
2022-11-25T01:55:10.694Z,5.78
2022-11-25T01:57:43.577Z,5.90
2022-11-25T02:00:10.699Z,7.88
2022-11-25T02:02:53.078Z,7.32
2022-11-25T02:05:32.383Z,5.65
2022-11-25T02:08:00.757Z,5.57
2022-11-25T02:10:30.688Z,4.53
2022-11-25T02:12:57.719Z,5.28
2022-11-25T02:15:24.263Z,5.30
2022-11-25T02:17:50.984Z,7.18
2022-11-25T02:20:19.843Z,5.95
2022-11-25T02:22:57.685Z,7.22
2022-11-25T02:25:28.375Z,6.82
2022-11-25T02:28:03.311Z,6.15
2022-11-25T02:30:29.866Z,5.95
2022-11-25T02:32:58.465Z,5.28
2022-11-25T02:35:30.998Z,6.07
2022-11-25T02:38:06.055Z,5.55
2022-11-25T02:40:37.286Z,5.10
2022-11-25T02:43:03.787Z,5.68
2022-11-25T02:45:42.616Z,5.85
2022-11-25T02:48:09.106Z,5.57
2022-11-25T02:50:36.132Z,5.30
2022-11-25T02:53:02.629Z,5.63
2022-11-25T02:55:29.002Z,9.57
2022-11-25T02:57:55.460Z,9.50
2022-11-25T03:00:23.030Z,7.35
2022-11-25T03:02:53.347Z,7.78
2022-11-25T03:05:22.546Z,6.47
2022-11-25T03:07:49.441Z,5.88
2022-11-25T03:10:18.741Z,5.57
2022-11-25T03:12:45.443Z,4.75
2022-11-25T03:15:12.250Z,4.85
2022-11-25T03:17:38.867Z,4.07
2022-11-25T03:20:07.376Z,5.72
2022-11-25T03:22:34.123Z,3.80
2022-11-25T03:25:03.797Z,4.13
2022-11-25T03:27:30.572Z,3.70
2022-11-25T03:29:57.345Z,3.60
2022-11-25T03:32:23.807Z,4.10
2022-11-25T03:34:50.425Z,5.15
2022-11-25T03:37:17.060Z,5.05
2022-11-25T03:39:43.537Z,4.72
2022-11-25T03:42:10.450Z,4.65
2022-11-25T03:44:37.238Z,5.00
2022-11-25T03:47:04.259Z,4.07
2022-11-25T03:49:30.680Z,5.28
2022-11-25T03:51:57.135Z,4.80
2022-11-25T03:54:23.902Z,5.47
2022-11-25T03:57:10.464Z,5.05
2022-11-25T03:59:37.352Z,5.22
2022-11-25T04:02:04.269Z,5.03
2022-11-25T04:04:31.393Z,4.70
2022-11-25T04:06:58.116Z,5.43
2022-11-25T04:09:25.720Z,4.53
2022-11-25T04:12:12.432Z,4.85
2022-11-25T04:14:48.720Z,4.18
2022-11-25T04:17:15.127Z,4.32
2022-11-25T04:19:42.353Z,5.38
2022-11-25T04:22:08.854Z,4.68
2022-11-25T04:24:40.089Z,5.47
2022-11-25T04:27:06.926Z,5.15
2022-11-25T04:29:33.384Z,5.88
2022-11-25T04:32:03.182Z,6.38
2022-11-25T04:34:29.614Z,7.47
2022-11-25T04:36:57.717Z,6.70
2022-11-25T04:39:24.796Z,6.90
2022-11-25T04:42:14.463Z,7.40
2022-11-25T04:44:40.980Z,7.00
2022-11-25T04:47:07.433Z,8.23
2022-11-25T04:49:34.009Z,7.85
2022-11-25T04:52:00.891Z,7.20
2022-11-25T04:54:27.376Z,7.60
2022-11-25T04:56:55.584Z,9.18
2022-11-25T04:59:41.425Z,8.52
2022-11-25T05:02:25.581Z,7.60
2022-11-25T05:04:57.792Z,7.20
2022-11-25T05:07:26.562Z,8.07
2022-11-25T05:09:55.639Z,7.15
2022-11-25T05:12:38.445Z,6.55
2022-11-25T05:15:09.496Z,6.15
2022-11-25T05:17:39.236Z,8.73
2022-11-25T05:20:07.270Z,8.23
2022-11-25T05:22:35.467Z,10.25
2022-11-25T05:25:05.813Z,10.90
2022-11-25T05:27:35.739Z,7.75
2022-11-25T05:30:08.187Z,7.32
2022-11-25T05:32:34.600Z,8.98
2022-11-25T05:35:05.509Z,9.30
2022-11-25T05:37:32.133Z,7.78
2022-11-25T05:40:04.401Z,6.20
2022-11-25T05:42:51.013Z,9.20
2022-11-25T05:45:19.015Z,6.70
2022-11-25T05:47:45.691Z,6.15
2022-11-25T05:50:16.639Z,8.00
2022-11-25T05:53:02.240Z,7.75
2022-11-25T05:55:29.027Z,7.38
2022-11-25T05:57:58.489Z,7.25
2022-11-25T06:00:26.901Z,6.82
2022-11-25T06:02:54.268Z,7.22
2022-11-25T06:05:22.246Z,7.28
2022-11-25T06:07:49.677Z,7.72
2022-11-25T06:10:17.695Z,6.80
2022-11-25T06:12:44.367Z,7.25
2022-11-25T06:15:12.211Z,6.75
2022-11-25T06:17:39.630Z,6.35
2022-11-25T06:20:19.762Z,8.48
2022-11-25T06:22:46.328Z,8.57
2022-11-25T06:25:12.801Z,8.45
2022-11-25T06:28:10.547Z,7.65
2022-11-25T06:30:27.454Z,6.68
2022-11-25T06:33:06.707Z,7.25
2022-11-25T06:35:33.361Z,6.07
2022-11-25T06:38:01.906Z,6.18
2022-11-25T06:40:28.354Z,6.20
2022-11-25T06:42:54.764Z,6.15
2022-11-25T06:45:21.188Z,6.85
2022-11-25T06:47:47.587Z,6.63
2022-11-25T06:50:13.974Z,7.07
2022-11-25T06:52:40.444Z,7.18
2022-11-25T06:55:07.252Z,6.85
2022-11-25T06:57:33.741Z,6.22
2022-11-25T07:00:00.291Z,6.45
2022-11-25T07:02:26.848Z,6.20
2022-11-25T07:04:53.678Z,6.40
2022-11-25T07:07:20.264Z,5.80
2022-11-25T07:09:47.483Z,7.00
2022-11-25T07:12:13.892Z,6.25
2022-11-25T07:14:40.272Z,6.13
2022-11-25T07:17:11.757Z,6.20
2022-11-25T07:19:38.990Z,4.97
2022-11-25T07:22:05.463Z,4.85
2022-11-25T07:24:33.695Z,7.65
2022-11-25T07:27:00.379Z,6.60
2022-11-25T07:29:54.218Z,6.15
2022-11-25T07:32:14.144Z,5.85
2022-11-25T07:34:40.571Z,6.35
2022-11-25T07:37:07.948Z,5.53
2022-11-25T07:39:35.001Z,6.00
2022-11-25T07:42:01.654Z,6.15
2022-11-25T07:44:28.045Z,5.55
2022-11-25T07:47:12.050Z,6.53
2022-11-25T07:49:38.666Z,5.40
2022-11-25T07:52:05.401Z,7.05
2022-11-25T07:54:33.064Z,5.63
2022-11-25T07:56:59.442Z,5.85
2022-11-25T07:59:25.948Z,6.18
2022-11-25T08:01:54.290Z,5.90
2022-11-25T08:04:21.737Z,6.22
2022-11-25T08:06:50.403Z,6.68
2022-11-25T08:09:21.515Z,5.80
2022-11-25T08:11:48.941Z,5.88
2022-11-25T08:14:16.364Z,6.15
2022-11-25T08:16:43.131Z,6.13
2022-11-25T08:19:13.621Z,5.43
2022-11-25T08:21:40.874Z,6.57
2022-11-25T08:24:07.484Z,6.30
2022-11-25T08:26:37.417Z,6.45
2022-11-25T08:29:06.352Z,5.80
2022-11-25T08:31:35.425Z,7.00
2022-11-25T08:34:03.275Z,5.82
2022-11-25T08:36:30.708Z,6.10
2022-11-25T08:39:01.293Z,6.10
2022-11-25T08:41:34.969Z,5.88
2022-11-25T08:44:03.205Z,5.82
2022-11-25T08:46:34.089Z,5.50
2022-11-25T08:49:00.743Z,6.28
2022-11-25T08:51:33.337Z,6.93
2022-11-25T08:54:00.082Z,7.35
2022-11-25T08:56:26.988Z,5.38
2022-11-25T08:58:56.765Z,6.60
2022-11-25T09:01:24.295Z,9.02
2022-11-25T09:03:52.935Z,8.68
2022-11-25T09:06:19.934Z,8.20
2022-11-25T09:08:46.529Z,8.68
2022-11-25T09:11:13.680Z,6.47
2022-11-25T09:13:43.644Z,7.50
2022-11-25T09:16:10.137Z,7.05
2022-11-25T09:18:37.172Z,7.63
2022-11-25T09:21:09.724Z,6.47
2022-11-25T09:23:36.443Z,6.78
2022-11-25T09:26:02.786Z,6.95
2022-11-25T09:28:29.361Z,8.23
2022-11-25T09:30:55.836Z,6.65
2022-11-25T09:33:22.911Z,8.07
2022-11-25T09:35:50.371Z,8.70
2022-11-25T09:38:17.024Z,7.18
2022-11-25T09:40:55.333Z,6.97
2022-11-25T09:44:01.076Z,6.75
2022-11-25T09:46:54.797Z,7.78
2022-11-25T09:49:32.864Z,7.03
2022-11-25T09:52:12.038Z,7.70
2022-11-25T09:54:47.844Z,8.45
2022-11-25T09:57:51.216Z,8.25
2022-11-25T10:00:21.038Z,8.55
2022-11-25T10:02:53.320Z,8.63
2022-11-25T10:05:23.271Z,9.80
2022-11-25T10:07:53.798Z,8.85
2022-11-25T10:10:31.250Z,8.32
2022-11-25T10:12:59.180Z,9.77
2022-11-25T10:15:31.524Z,10.30
2022-11-25T10:18:06.560Z,9.98
2022-11-25T10:20:37.132Z,10.80
2022-11-25T10:23:15.272Z,10.23
2022-11-25T10:25:45.942Z,8.93
2022-11-25T10:28:24.878Z,9.40
2022-11-25T10:31:00.505Z,10.68
2022-11-25T10:33:31.886Z,10.63
2022-11-25T10:36:14.410Z,10.10
2022-11-25T10:38:55.821Z,11.93
2022-11-25T10:41:25.931Z,10.90
2022-11-25T10:43:52.278Z,10.40
2022-11-25T10:46:37.952Z,10.45
2022-11-25T10:49:28.318Z,10.35
2022-11-25T10:51:57.314Z,11.52
2022-11-25T10:54:27.876Z,11.00
2022-11-25T10:57:00.520Z,10.68
2022-11-25T10:59:34.407Z,10.38
2022-11-25T11:02:19.039Z,11.40
2022-11-25T11:04:58.467Z,10.20
2022-11-25T11:07:28.016Z,8.88
2022-11-25T11:10:11.724Z,10.10
2022-11-25T11:12:38.180Z,10.15
2022-11-25T11:15:19.388Z,9.82
2022-11-25T11:17:46.476Z,9.32
2022-11-25T11:20:27.730Z,9.82
2022-11-25T11:23:14.500Z,10.43
2022-11-25T11:25:44.114Z,10.88
2022-11-25T11:28:39.238Z,10.70
2022-11-25T11:31:28.872Z,11.20
2022-11-25T11:34:13.774Z,10.32
2022-11-25T11:37:10.829Z,8.57
2022-11-25T11:39:50.131Z,8.93
2022-11-25T11:42:49.683Z,7.53
2022-11-25T11:45:25.317Z,8.75
2022-11-25T11:48:04.036Z,8.75
2022-11-25T11:50:37.001Z,8.05
2022-11-25T11:53:17.478Z,9.07
2022-11-25T11:56:26.856Z,8.35
2022-11-25T11:59:06.096Z,8.50
2022-11-25T12:02:12.720Z,7.53
2022-11-25T12:04:45.845Z,6.45
2022-11-25T12:10:06.090Z,8.50
2022-11-25T12:12:38.711Z,7.28
2022-11-25T12:15:24.476Z,7.65
2022-11-25T12:17:56.169Z,7.93
2022-11-25T12:20:35.624Z,7.47
2022-11-25T12:23:10.257Z,7.68
2022-11-25T12:25:40.081Z,7.85
2022-11-25T12:28:15.005Z,7.43
2022-11-25T12:31:01.895Z,8.40
2022-11-25T12:33:57.395Z,8.90
2022-11-25T12:36:39.005Z,8.30
2022-11-25T12:39:10.875Z,7.97
2022-11-25T12:41:44.364Z,8.40
2022-11-25T12:44:23.424Z,9.10
2022-11-25T12:46:51.830Z,6.80
2022-11-25T12:49:25.136Z,8.68
2022-11-25T12:52:01.523Z,8.15
2022-11-25T12:54:52.885Z,8.82
2022-11-25T12:57:38.057Z,7.10
2022-11-25T13:00:41.546Z,7.80
2022-11-25T13:03:27.480Z,7.60
2022-11-25T13:06:19.941Z,7.13
2022-11-25T13:09:08.434Z,6.90
2022-11-25T13:12:08.165Z,7.03
2022-11-25T13:15:13.154Z,6.93
2022-11-25T13:17:42.980Z,7.13
2022-11-25T13:20:27.795Z,6.75
2022-11-25T13:23:10.792Z,7.47
2022-11-25T13:25:39.758Z,5.77
2022-11-25T13:28:28.701Z,7.45
2022-11-25T13:30:56.156Z,6.88
2022-11-25T13:33:42.879Z,6.50
2022-11-25T13:36:18.168Z,5.72
2022-11-25T13:38:50.915Z,5.80
2022-11-25T13:41:20.128Z,5.22
2022-11-25T13:44:18.508Z,7.07
2022-11-25T13:46:49.186Z,5.68
2022-11-25T13:49:50.800Z,5.60
2022-11-25T13:52:26.114Z,4.40
2022-11-25T13:54:55.513Z,5.78
2022-11-25T13:57:31.157Z,5.30
2022-11-25T14:00:01.454Z,5.75
2022-11-25T14:02:28.052Z,5.00
2022-11-25T14:05:19.851Z,5.15
2022-11-25T14:07:46.295Z,6.03
2022-11-25T14:10:39.388Z,5.55
2022-11-25T14:13:24.152Z,6.65
2022-11-25T14:16:06.511Z,5.95
2022-11-25T14:22:03.239Z,6.35
2022-11-25T14:24:36.068Z,5.45
2022-11-25T14:27:22.481Z,6.13
2022-11-25T14:29:54.289Z,5.57
2022-11-25T14:32:36.707Z,6.13
2022-11-25T14:35:13.448Z,7.70
2022-11-25T14:38:03.113Z,6.25
2022-11-25T14:40:41.529Z,5.80
2022-11-25T14:43:15.272Z,6.28
2022-11-25T14:45:41.749Z,5.78
2022-11-25T14:48:30.071Z,6.00
2022-11-25T14:51:18.127Z,5.93
2022-11-25T14:53:49.617Z,6.40
2022-11-25T14:56:42.363Z,6.35
2022-11-25T14:59:10.927Z,6.03
2022-11-25T15:01:39.133Z,7.15
2022-11-25T15:04:05.789Z,6.30
2022-11-25T15:06:37.004Z,6.05
2022-11-25T15:09:17.480Z,5.68
2022-11-25T15:11:44.133Z,5.50
2022-11-25T15:14:23.873Z,5.88
2022-11-25T15:16:50.723Z,5.90
2022-11-25T15:19:19.493Z,7.05
2022-11-25T15:22:21.467Z,6.20
2022-11-25T15:24:47.906Z,6.00
2022-11-25T15:27:28.137Z,6.13
2022-11-25T15:29:57.367Z,5.90
2022-11-25T15:32:30.764Z,6.22
2022-11-25T15:35:00.760Z,7.65
2022-11-25T15:37:28.285Z,7.63
2022-11-25T15:40:29.831Z,6.25
2022-11-25T15:42:58.480Z,6.78
2022-11-25T15:45:25.854Z,5.95
2022-11-25T15:47:53.032Z,6.38
2022-11-25T15:50:27.513Z,7.28
2022-11-25T15:52:56.794Z,6.70
2022-11-25T15:55:41.171Z,7.68
2022-11-25T15:58:19.168Z,7.22
2022-11-25T16:01:01.542Z,7.03
2022-11-25T16:03:31.395Z,6.55
2022-11-25T16:05:59.848Z,6.63
2022-11-25T16:08:37.288Z,7.85
2022-11-25T16:11:19.257Z,7.93
2022-11-25T16:13:48.197Z,8.40
2022-11-25T16:16:16.398Z,10.07
2022-11-25T16:18:53.160Z,9.43
2022-11-25T16:21:25.889Z,8.05
2022-11-25T16:23:58.552Z,7.40
2022-11-25T16:26:38.308Z,7.13
2022-11-25T16:29:30.036Z,8.30
2022-11-25T16:31:56.587Z,7.32
2022-11-25T16:34:26.554Z,10.52
2022-11-25T16:36:53.859Z,11.73
2022-11-25T16:39:21.021Z,9.80
2022-11-25T16:41:58.865Z,9.23
2022-11-25T16:44:27.245Z,9.70
2022-11-25T16:46:54.193Z,12.35
2022-11-25T16:49:22.406Z,13.15
2022-11-25T16:51:50.554Z,11.60
2022-11-25T16:54:19.021Z,11.15
2022-11-25T16:56:48.068Z,9.35
2022-11-25T16:59:29.236Z,11.30
2022-11-25T17:01:56.383Z,9.55
2022-11-25T17:04:22.855Z,10.18
2022-11-25T17:07:16.369Z,10.32
2022-11-25T17:09:35.933Z,9.25
2022-11-25T17:12:02.585Z,8.48
2022-11-25T17:14:32.839Z,8.07
2022-11-25T17:17:00.651Z,8.98
2022-11-25T17:19:28.562Z,7.80
2022-11-25T17:21:55.073Z,7.40
2022-11-25T17:24:23.647Z,7.95
2022-11-25T17:26:52.789Z,8.95
2022-11-25T17:29:23.153Z,7.75
2022-11-25T17:31:53.622Z,9.30
2022-11-25T17:34:23.183Z,8.77
2022-11-25T17:36:49.875Z,8.55
2022-11-25T17:39:16.352Z,8.20
2022-11-25T17:41:49.169Z,7.70
2022-11-25T17:44:27.471Z,7.63
2022-11-25T17:46:55.713Z,7.15
2022-11-25T17:49:23.412Z,7.05
2022-11-25T17:51:50.325Z,7.32
2022-11-25T17:54:17.382Z,8.55
2022-11-25T17:56:51.862Z,8.98
2022-11-25T17:59:37.355Z,9.38
2022-11-25T18:02:16.231Z,10.60
2022-11-25T18:04:42.735Z,13.43
2022-11-25T18:07:10.538Z,17.02
2022-11-25T18:09:36.963Z,13.98
2022-11-25T18:12:10.400Z,12.52
2022-11-25T18:14:38.630Z,11.98
2022-11-25T18:17:07.546Z,8.90
2022-11-25T18:19:35.027Z,8.60
2022-11-25T18:22:12.489Z,7.70
2022-11-25T18:24:39.397Z,7.95
2022-11-25T18:27:07.473Z,8.15
2022-11-25T18:29:33.921Z,9.25
2022-11-25T18:32:00.448Z,7.45
2022-11-25T18:34:27.661Z,7.65
2022-11-25T18:36:54.406Z,6.68
2022-11-25T18:39:20.965Z,7.13
2022-11-25T18:41:49.730Z,6.40
2022-11-25T18:44:26.549Z,9.35
2022-11-25T18:46:53.607Z,8.27
2022-11-25T18:49:20.538Z,7.93
2022-11-25T18:51:47.475Z,8.85
2022-11-25T18:54:13.861Z,7.93
2022-11-25T18:56:41.295Z,8.43
2022-11-25T18:59:14.798Z,10.77
2022-11-25T19:01:45.412Z,11.18
2022-11-25T19:04:16.077Z,9.30
2022-11-25T19:06:43.360Z,9.85
2022-11-25T19:09:10.017Z,8.35
2022-11-25T19:11:38.798Z,8.93
2022-11-25T19:14:12.282Z,8.43
2022-11-25T19:16:39.300Z,7.38
2022-11-25T19:19:06.141Z,8.65
2022-11-25T19:21:33.425Z,9.63
2022-11-25T19:24:00.051Z,10.85
2022-11-25T19:26:30.726Z,9.10
2022-11-25T19:29:07.881Z,10.30
2022-11-25T19:31:35.198Z,8.50
2022-11-25T19:34:01.735Z,8.85
2022-11-25T19:36:31.001Z,8.13
2022-11-25T19:38:58.091Z,8.35
2022-11-25T19:41:24.567Z,8.65
2022-11-25T19:43:51.003Z,8.10
2022-11-25T19:46:29.986Z,7.38
2022-11-25T19:49:00.050Z,7.32
2022-11-25T19:51:31.929Z,7.57
2022-11-25T19:53:58.457Z,7.68
2022-11-25T19:56:26.959Z,9.02
2022-11-25T19:58:54.649Z,7.22
2022-11-25T20:01:25.279Z,8.90
2022-11-25T20:03:51.976Z,8.70
2022-11-25T20:06:19.845Z,8.75
2022-11-25T20:08:47.074Z,9.18
2022-11-25T20:11:15.641Z,8.63
2022-11-25T20:13:43.314Z,9.43
2022-11-25T20:16:17.223Z,9.15
2022-11-25T20:18:45.275Z,9.43
2022-11-25T20:21:20.754Z,8.77
2022-11-25T20:23:48.364Z,8.27
2022-11-25T20:26:18.183Z,9.52
2022-11-25T20:28:45.387Z,9.02
2022-11-25T20:31:13.184Z,9.70
2022-11-25T20:33:39.762Z,10.45
2022-11-25T20:36:11.647Z,10.55
2022-11-25T20:38:45.373Z,8.82
2022-11-25T20:41:13.031Z,9.00
2022-11-25T20:43:42.460Z,8.45
2022-11-25T20:46:29.874Z,8.63
2022-11-25T20:48:59.072Z,7.75
2022-11-25T20:51:25.693Z,7.93
2022-11-25T20:53:57.185Z,10.02
2022-11-25T20:56:25.887Z,8.20
2022-11-25T20:58:52.279Z,8.27
2022-11-25T21:01:21.382Z,8.57
2022-11-25T21:03:49.323Z,7.10
2022-11-25T21:06:20.126Z,7.13
2022-11-25T21:08:48.934Z,6.88
2022-11-25T21:11:16.735Z,5.68
2022-11-25T21:13:43.519Z,6.18
2022-11-25T21:16:10.096Z,6.10
2022-11-25T21:18:36.508Z,6.72
2022-11-25T21:21:03.700Z,4.70
2022-11-25T21:23:36.265Z,5.60
2022-11-25T21:26:07.275Z,6.20
2022-11-25T21:28:39.915Z,5.70
2022-11-25T21:31:11.106Z,4.97
2022-11-25T21:33:37.779Z,5.43
2022-11-25T21:36:04.549Z,5.13
2022-11-25T21:38:31.062Z,6.00
2022-11-25T21:40:58.277Z,5.47
2022-11-25T21:43:29.029Z,6.70
2022-11-25T21:46:01.532Z,5.30
2022-11-25T21:48:29.502Z,4.57
2022-11-25T21:50:56.246Z,5.38
2022-11-25T21:53:23.616Z,5.57
2022-11-25T21:55:50.207Z,6.45
2022-11-25T21:58:19.391Z,5.03
2022-11-25T22:00:51.445Z,4.90
2022-11-25T22:03:19.476Z,4.77
2022-11-25T22:05:46.979Z,4.68
2022-11-25T22:08:13.600Z,5.45
2022-11-25T22:10:41.606Z,5.55
2022-11-25T22:13:15.207Z,8.02
2022-11-25T22:15:41.679Z,10.70
2022-11-25T22:18:18.097Z,11.15
2022-11-25T22:20:48.251Z,11.48
2022-11-25T22:23:19.587Z,10.38
2022-11-25T22:25:47.132Z,10.05
2022-11-25T22:28:19.559Z,9.32
2022-11-25T22:30:50.278Z,8.45
2022-11-25T22:33:17.347Z,8.63
2022-11-25T22:35:43.779Z,6.65
2022-11-25T22:38:15.426Z,7.68
2022-11-25T22:40:47.679Z,7.20
2022-11-25T22:43:21.248Z,5.70
2022-11-25T22:45:47.815Z,6.00
2022-11-25T22:48:18.141Z,5.68
2022-11-25T22:50:45.845Z,6.15
2022-11-25T22:53:14.635Z,5.40
2022-11-25T22:55:41.542Z,4.35
2022-11-25T22:58:09.334Z,5.68
2022-11-25T23:00:40.389Z,4.95
2022-11-25T23:03:13.696Z,5.38
2022-11-25T23:05:40.668Z,4.90
2022-11-25T23:08:17.060Z,6.03
2022-11-25T23:10:44.116Z,5.78
2022-11-25T23:13:10.548Z,5.47
2022-11-25T23:15:37.652Z,5.20
2022-11-25T23:18:07.134Z,5.57
2022-11-25T23:20:37.737Z,4.55
2022-11-25T23:23:16.106Z,4.35
2022-11-25T23:25:42.897Z,4.55
2022-11-25T23:28:09.497Z,4.68
2022-11-25T23:30:36.507Z,5.68
2022-11-25T23:33:03.771Z,4.43
2022-11-25T23:35:36.326Z,3.60
2022-11-25T23:38:06.268Z,4.18
2022-11-25T23:40:33.796Z,4.50
2022-11-25T23:43:00.184Z,3.75
2022-11-25T23:45:27.269Z,4.03
2022-11-25T23:47:55.629Z,4.50
2022-11-25T23:50:27.135Z,3.90
2022-11-25T23:52:59.421Z,4.72
2022-11-25T23:55:32.083Z,4.95
2022-11-25T23:58:01.355Z,5.03
